METAR Analyzer

一覧表示

Hello, Guest. (Login)

RJGG/NGO  -  名古屋/中部

観測日時
2021-05-15 18:00 (UTC) (24分前)
気温
20
露点
18
湿数
2
相対湿度
88.3%
QNH
1015hPa
推定現地気圧
1014.5hPa
推定海面気圧
1015.0hPa
体感温度
11.6
(無風時)
21.2
HI
20.4
気温前日比
+1
体感温度前日比
+0.6
HI前日比
+1
水平視程
>10000m
鉛直視程
データなし
雲底高度
9000ft AGL
V/I
VMC (VFR)
RVR
No RVR data
卓越風
13kt from 120°
ガスト
No gust
降水
弱い雨
その他の天気
報告なし
少しの雲 @ 2000ft AGL / 散在する雲 @ 5000ft AGL / 隙間のある雲 @ 9000ft AGL

RJGG 151800Z 12013KT 9999 -RA FEW020 SCT050 BKN090 20/18 Q1015 NOSIG

RJNA/NKM  -  名古屋/小牧

観測日時
2021-05-15 18:00 (UTC) (24分前)
気温
20
露点
16
湿数
4
相対湿度
77.8%
QNH
1015.6hPa
推定現地気圧
1013.9hPa
推定海面気圧
1015.6hPa
体感温度
14.1
(無風時)
20.8
HI
20.1
気温前日比
±0
体感温度前日比
+0.4
HI前日比
-0.1
水平視程
>10000m
鉛直視程
データなし
雲底高度
8000ft AGL
V/I
VMC (VFR)
RVR
No RVR data
卓越風
5kt from 110°
ガスト
No gust
降水
弱いしゅう雨性の雨
その他の天気
報告なし
少しの(1/8) 積雲 @ 2000ft AGL / 散在する(3/8) 層積雲 @ 4000ft AGL / 隙間のある(7/8) 高積雲 @ 8000ft AGL

RJNA 151800Z 11005KT 9999 -SHRA FEW020 SCT040 BKN080 20/16 Q1015 RMK 1CU020 3SC040 7AC080 A2999

RJNS/FSZ  -  静岡